Time;durP1;ratioP1;P1;durP2;ratioP2;P2;SDS_P1;SDS_P2;PMS_P1;PMS_P2;Temp;Humidity;BMP_temperature;BMP_pressure;BME280_temperature;BME280_humidity;BME280_pressure;Samples;Min_cycle;Max_cycle;Signal;HPM_P1;HPM_P2
2021/05/10 00:00:47;;;;;;;3.22;1.30;;;18.40;99.90;;;;;;4988740;28;20061;-79
2021/05/10 00:03:13;;;;;;;1.95;0.90;;;18.40;99.90;;;;;;4988866;28;20275;-79
2021/05/10 00:05:59;;;;;;;1.80;0.93;;;18.40;99.90;;;;;;4972286;28;20045;-79
2021/05/10 00:08:26;;;;;;;1.77;0.90;;;18.30;99.90;;;;;;4968126;28;20054;-79
2021/05/10 00:10:53;;;;;;;1.25;0.93;;;18.30;99.90;;;;;;4984472;28;20038;-79
2021/05/10 00:13:19;;;;;;;3.03;1.20;;;18.30;99.90;;;;;;4984598;28;20046;-79
2021/05/10 00:15:47;;;;;;;3.25;1.13;;;18.30;99.90;;;;;;4984080;28;20062;-78
2021/05/10 00:18:14;;;;;;;1.58;1.13;;;18.20;99.90;;;;;;4968380;28;20019;-79
2021/05/10 00:20:41;;;;;;;3.42;1.00;;;18.20;99.90;;;;;;4968120;28;20129;-79
2021/05/10 00:23:08;;;;;;;1.98;0.85;;;18.20;99.90;;;;;;4984405;28;20038;-78
2021/05/10 00:25:34;;;;;;;2.15;0.93;;;18.20;99.90;;;;;;4984139;28;20043;-78
2021/05/10 00:28:00;;;;;;;2.22;0.98;;;18.30;99.90;;;;;;4984096;28;20038;-78
2021/05/10 00:30:26;;;;;;;1.65;0.90;;;18.20;99.90;;;;;;4984208;28;20069;-78
2021/05/10 00:32:51;;;;;;;1.95;0.77;;;18.20;99.90;;;;;;4988255;28;20041;-78
2021/05/10 00:35:18;;;;;;;2.72;1.35;;;18.20;99.90;;;;;;4988017;28;20074;-78
2021/05/10 00:37:44;;;;;;;1.45;0.85;;;18.10;99.90;;;;;;4988306;28;20038;-78
2021/05/10 00:40:12;;;;;;;2.30;1.02;;;18.20;99.90;;;;;;4988303;28;20462;-78
2021/05/10 00:42:38;;;;;;;2.60;0.70;;;18.20;99.90;;;;;;4988120;28;20045;-78
2021/05/10 00:45:06;;;;;;;2.53;0.70;;;18.20;99.90;;;;;;4995027;28;20097;-78
2021/05/10 00:47:31;;;;;;;2.22;0.60;;;18.20;99.90;;;;;;5009705;28;20221;-78
2021/05/10 00:49:57;;;;;;;1.00;0.40;;;18.20;99.90;;;;;;4992396;28;20268;-78
2021/05/10 00:52:23;;;;;;;1.10;0.50;;;18.20;99.90;;;;;;4976099;28;20089;-78
2021/05/10 00:54:50;;;;;;;2.17;0.43;;;18.30;99.90;;;;;;4976098;28;20088;-78
2021/05/10 00:57:16;;;;;;;1.25;0.40;;;18.30;99.90;;;;;;4992310;28;20089;-78
2021/05/10 00:59:42;;;;;;;0.93;0.30;;;18.40;99.90;;;;;;4992038;28;20084;-78
2021/05/10 01:02:08;;;;;;;3.97;0.32;;;18.40;99.90;;;;;;5009585;28;20038;-79
2021/05/10 01:04:33;;;;;;;1.38;0.40;;;18.40;99.90;;;;;;5009609;28;20065;-78
2021/05/10 01:06:59;;;;;;;0.90;0.30;;;18.40;99.90;;;;;;5009135;28;20046;-78
2021/05/10 01:09:25;;;;;;;1.50;0.30;;;18.40;99.90;;;;;;4975957;28;20052;-79
2021/05/10 01:11:51;;;;;;;0.47;0.28;;;18.40;99.90;;;;;;4975673;28;20065;-78
2021/05/10 01:14:16;;;;;;;1.00;0.25;;;18.40;99.90;;;;;;4991782;28;20046;-78
2021/05/10 01:16:43;;;;;;;0.98;0.30;;;18.40;99.90;;;;;;5008917;28;20022;-78
2021/05/10 01:19:09;;;;;;;1.23;0.30;;;18.40;99.90;;;;;;5009365;28;20030;-78
2021/05/10 01:21:35;;;;;;;1.23;0.30;;;18.40;99.90;;;;;;4991607;28;20037;-78
2021/05/10 01:24:01;;;;;;;1.05;0.30;;;18.50;99.90;;;;;;5009099;28;20030;-78
2021/05/10 01:26:27;;;;;;;0.82;0.30;;;18.40;99.90;;;;;;5007737;28;20027;-78
2021/05/10 01:28:53;;;;;;;1.30;0.30;;;18.40;99.90;;;;;;5009017;28;20030;-78
2021/05/10 01:31:19;;;;;;;1.73;0.30;;;18.40;99.90;;;;;;5008823;28;20041;-77
2021/05/10 01:33:44;;;;;;;1.58;0.30;;;18.50;99.90;;;;;;4991653;28;20042;-78
2021/05/10 01:36:12;;;;;;;0.77;0.30;;;18.50;99.90;;;;;;4990955;28;20470;-78
2021/05/10 01:38:38;;;;;;;3.05;0.40;;;18.50;99.90;;;;;;5008878;28;20030;-78
2021/05/10 01:41:03;;;;;;;1.35;0.40;;;18.40;99.90;;;;;;4991195;28;20069;-78
2021/05/10 01:43:29;;;;;;;0.60;0.20;;;18.50;99.90;;;;;;5009157;28;20102;-78
2021/05/10 01:45:55;;;;;;;1.00;0.20;;;18.40;99.90;;;;;;5009923;28;20474;-78
2021/05/10 01:48:20;;;;;;;1.40;0.20;;;18.40;99.90;;;;;;4972771;28;20027;-78
2021/05/10 01:50:47;;;;;;;1.48;0.30;;;18.40;99.90;;;;;;4955827;28;20035;-79
2021/05/10 01:53:14;;;;;;;0.82;0.20;;;18.40;99.90;;;;;;5003625;28;20065;-79
2021/05/10 01:55:40;;;;;;;2.67;0.30;;;18.40;99.90;;;;;;5007149;28;20073;-78
2021/05/10 01:58:07;;;;;;;2.15;0.20;;;18.40;99.90;;;;;;4990840;28;20069;-79
2021/05/10 02:00:38;;;;;;;2.45;0.57;;;18.40;99.90;;;;;;4990989;28;20150;-78
2021/05/10 02:03:06;;;;;;;0.60;0.20;;;18.30;99.90;;;;;;4990719;28;20040;-78
2021/05/10 02:05:52;;;;;;;0.68;0.20;;;18.30;99.90;;;;;;4990660;28;20038;-79
2021/05/10 02:08:19;;;;;;;0.57;0.20;;;18.30;99.90;;;;;;4931769;29;20075;-78
2021/05/10 02:10:46;;;;;;;2.25;0.28;;;18.30;99.90;;;;;;4947874;29;20047;-78
2021/05/10 02:13:23;;;;;;;1.88;0.20;;;18.20;99.90;;;;;;4947868;29;20062;-78
2021/05/10 02:15:57;;;;;;;0.70;0.20;;;18.20;99.90;;;;;;4947748;29;20044;-78
2021/05/10 02:18:27;;;;;;;0.65;0.25;;;18.20;99.90;;;;;;4947722;29;20099;-79
2021/05/10 02:20:53;;;;;;;0.40;0.20;;;18.20;99.90;;;;;;4947876;29;20036;-79
2021/05/10 02:23:21;;;;;;;1.58;0.20;;;18.20;99.90;;;;;;4947859;29;20118;-78
2021/05/10 02:25:56;;;;;;;0.80;0.10;;;18.20;99.90;;;;;;4944272;29;20044;-78
2021/05/10 02:28:24;;;;;;;2.08;0.22;;;18.20;99.90;;;;;;4912878;29;20044;-78
2021/05/10 02:30:51;;;;;;;1.30;0.20;;;18.20;99.90;;;;;;4928558;29;20039;-78
2021/05/10 02:33:20;;;;;;;0.60;0.20;;;18.20;99.90;;;;;;4944453;29;20047;-78
2021/05/10 02:35:47;;;;;;;1.58;0.20;;;18.10;99.90;;;;;;4928354;29;20461;-78
2021/05/10 02:38:14;;;;;;;1.05;0.22;;;18.10;99.90;;;;;;4928477;29;20043;-78
2021/05/10 02:40:40;;;;;;;2.10;0.25;;;18.20;99.90;;;;;;4928620;29;20067;-79
2021/05/10 02:43:06;;;;;;;0.65;0.20;;;18.30;99.90;;;;;;4912607;29;20547;-78
2021/05/10 02:45:33;;;;;;;1.08;0.20;;;18.30;99.90;;;;;;4950718;29;20063;-78
2021/05/10 02:47:59;;;;;;;2.30;0.20;;;18.30;99.90;;;;;;4951553;29;20043;-78
2021/05/10 02:50:27;;;;;;;0.30;0.20;;;18.40;99.90;;;;;;4951621;29;20031;-79
2021/05/10 02:52:53;;;;;;;0.85;0.20;;;18.30;99.90;;;;;;4968633;28;20035;-78
2021/05/10 02:55:20;;;;;;;2.78;0.20;;;18.30;99.90;;;;;;4950665;29;20046;-78
2021/05/10 02:57:48;;;;;;;0.63;0.20;;;18.30;99.90;;;;;;4967330;28;20039;-78
2021/05/10 03:00:16;;;;;;;2.53;0.30;;;18.20;99.90;;;;;;4951409;29;20062;-78
2021/05/10 03:02:42;;;;;;;0.80;0.20;;;18.20;99.90;;;;;;4967149;28;20311;-78
2021/05/10 03:05:09;;;;;;;0.50;0.20;;;18.20;99.90;;;;;;4951413;29;20299;-78
2021/05/10 03:07:36;;;;;;;1.83;0.28;;;18.10;99.90;;;;;;4977084;28;20050;-78
2021/05/10 03:10:03;;;;;;;1.05;0.20;;;18.10;99.90;;;;;;4970474;28;20039;-77
2021/05/10 03:12:29;;;;;;;0.50;0.20;;;18.10;99.90;;;;;;4987921;28;20049;-78
2021/05/10 03:14:54;;;;;;;1.08;0.20;;;18.00;99.90;;;;;;5006906;28;20554;-78
2021/05/10 03:17:20;;;;;;;0.50;0.20;;;18.00;99.90;;;;;;4973414;28;20031;-77
2021/05/10 03:19:46;;;;;;;0.90;0.30;;;17.90;99.90;;;;;;4989210;28;20368;-78
2021/05/10 03:22:12;;;;;;;1.08;0.20;;;17.90;99.90;;;;;;4989478;28;20043;-78
2021/05/10 03:24:38;;;;;;;2.03;0.20;;;17.90;99.90;;;;;;5006798;28;20094;-79
2021/05/10 03:27:04;;;;;;;1.33;0.30;;;17.90;99.90;;;;;;5006338;28;20030;-79
2021/05/10 03:29:30;;;;;;;0.70;0.20;;;17.90;99.90;;;;;;4989238;28;20058;-79
2021/05/10 03:31:55;;;;;;;1.48;0.20;;;17.90;99.90;;;;;;5005607;28;20073;-80
2021/05/10 03:34:21;;;;;;;0.70;0.20;;;18.10;99.90;;;;;;5005201;28;20171;-78
2021/05/10 03:36:46;;;;;;;2.47;0.30;;;18.10;99.90;;;;;;5006588;28;20036;-78
2021/05/10 03:39:12;;;;;;;0.90;0.20;;;18.10;99.90;;;;;;4972982;28;20030;-78
2021/05/10 03:41:38;;;;;;;0.60;0.20;;;18.00;99.90;;;;;;5006671;28;20027;-78
2021/05/10 03:44:03;;;;;;;1.02;0.17;;;18.10;99.90;;;;;;5006448;28;20132;-78
2021/05/10 03:46:29;;;;;;;0.60;0.30;;;18.00;99.90;;;;;;4972934;28;20038;-78
2021/05/10 03:48:55;;;;;;;0.93;0.40;;;18.00;99.90;;;;;;4988911;28;20081;-78
2021/05/10 03:51:20;;;;;;;0.80;0.20;;;18.00;99.90;;;;;;5006505;28;20037;-78
2021/05/10 03:53:46;;;;;;;1.13;0.40;;;18.10;99.90;;;;;;4972816;28;20042;-78
2021/05/10 03:56:12;;;;;;;0.40;0.10;;;18.10;99.90;;;;;;4988929;28;20038;-78
2021/05/10 03:58:39;;;;;;;1.63;0.20;;;18.20;99.90;;;;;;4988902;28;20037;-78
2021/05/10 04:01:05;;;;;;;2.92;0.20;;;18.30;99.90;;;;;;4989122;28;20069;-78
2021/05/10 04:03:36;;;;;;;1.20;0.10;;;18.40;99.90;;;;;;4988739;28;20030;-78
2021/05/10 04:11:25;;;;;;;1.55;0.20;;;18.40;99.90;;;;;;5005798;28;20080;-78
2021/05/10 04:13:55;;;;;;;2.38;0.20;;;18.60;99.90;;;;;;5005625;28;20038;-79
2021/05/10 04:16:21;;;;;;;2.50;0.20;;;18.60;99.90;;;;;;4988116;28;20035;-78
2021/05/10 04:18:47;;;;;;;2.00;0.30;;;18.70;99.90;;;;;;4988019;28;20042;-78
2021/05/10 04:21:13;;;;;;;1.13;0.20;;;18.90;99.90;;;;;;4988007;28;20365;-78
2021/05/10 04:23:38;;;;;;;0.80;0.20;;;18.80;99.90;;;;;;4988354;28;20034;-79
2021/05/10 04:26:04;;;;;;;0.70;0.20;;;18.70;99.90;;;;;;4972387;28;20045;-79
2021/05/10 04:28:30;;;;;;;0.90;0.20;;;18.80;99.90;;;;;;4988048;28;20033;-80
2021/05/10 04:30:56;;;;;;;1.80;0.20;;;18.90;99.90;;;;;;4987696;28;20121;-79
2021/05/10 04:33:27;;;;;;;1.52;0.20;;;18.90;99.90;;;;;;4971921;28;20034;-78
2021/05/10 04:35:54;;;;;;;1.35;0.20;;;18.90;99.90;;;;;;4987120;28;20046;-79
2021/05/10 04:38:20;;;;;;;0.90;0.20;;;18.90;99.90;;;;;;4987806;28;20027;-78
2021/05/10 04:40:45;;;;;;;0.80;0.20;;;19.10;99.90;;;;;;5005234;28;20156;-79
2021/05/10 04:43:11;;;;;;;2.00;0.40;;;19.20;99.90;;;;;;4971691;28;20031;-78
2021/05/10 04:45:37;;;;;;;1.45;0.20;;;19.20;99.90;;;;;;4971490;28;20034;-79
2021/05/10 04:48:04;;;;;;;1.25;0.20;;;19.20;99.90;;;;;;4971758;28;20031;-79
2021/05/10 04:50:30;;;;;;;1.63;0.20;;;19.20;99.90;;;;;;4971406;28;20046;-79
2021/05/10 04:52:56;;;;;;;1.02;0.30;;;19.30;99.90;;;;;;4971562;28;20034;-79
2021/05/10 04:55:21;;;;;;;0.90;0.20;;;19.30;99.90;;;;;;4971231;28;20068;-80
2021/05/10 04:57:47;;;;;;;1.33;0.30;;;19.30;99.90;;;;;;4971661;28;20098;-81
2021/05/10 05:00:16;;;;;;;1.15;0.30;;;19.30;99.90;;;;;;4970448;28;20039;-78
2021/05/10 05:02:42;;;;;;;1.10;0.20;;;19.40;99.90;;;;;;4998818;28;20038;-78
2021/05/10 05:05:10;;;;;;;0.90;0.20;;;19.40;99.90;;;;;;5002986;28;20132;-79
2021/05/10 05:07:39;;;;;;;1.83;0.25;;;19.40;99.90;;;;;;5004577;28;20070;-79
2021/05/10 05:10:08;;;;;;;1.30;0.20;;;19.50;99.90;;;;;;4986445;28;20034;-80
2021/05/10 05:12:37;;;;;;;3.17;0.20;;;19.40;99.90;;;;;;5003332;28;20066;-80
2021/05/10 05:15:07;;;;;;;0.73;0.20;;;19.50;99.90;;;;;;4987079;28;20077;-78
2021/05/10 05:17:34;;;;;;;1.38;0.20;;;19.40;99.90;;;;;;4972926;28;20034;-81
2021/05/10 05:19:59;;;;;;;4.57;0.32;;;19.40;99.90;;;;;;4990825;28;20041;-79
2021/05/10 05:22:25;;;;;;;1.83;0.20;;;19.40;99.90;;;;;;5008074;28;20022;-80
2021/05/10 05:24:51;;;;;;;3.28;0.20;;;19.30;99.90;;;;;;4974360;28;20120;-80
2021/05/10 05:27:17;;;;;;;2.05;0.30;;;19.40;99.90;;;;;;4974754;28;20359;-79
2021/05/10 05:29:42;;;;;;;1.80;0.68;;;19.30;99.90;;;;;;4991076;28;20041;-79
2021/05/10 05:32:08;;;;;;;2.95;0.20;;;19.30;99.90;;;;;;5007026;28;20030;-78
2021/05/10 05:34:34;;;;;;;3.72;0.50;;;19.20;99.90;;;;;;5007609;28;20643;-79
2021/05/10 05:36:59;;;;;;;1.90;0.20;;;19.20;99.90;;;;;;4990099;28;20034;-79
2021/05/10 05:39:26;;;;;;;1.15;0.20;;;19.20;99.90;;;;;;4990581;28;20058;-79
2021/05/10 05:41:52;;;;;;;0.50;0.20;;;19.20;99.90;;;;;;5006752;28;20026;-78
2021/05/10 05:44:18;;;;;;;5.13;0.25;;;19.10;99.90;;;;;;4990654;28;20027;-80
2021/05/10 05:46:48;;;;;;;1.92;0.20;;;19.10;99.90;;;;;;4974208;28;20041;-78
2021/05/10 05:49:14;;;;;;;2.22;0.30;;;19.00;99.90;;;;;;4990061;28;20026;-78
2021/05/10 05:51:39;;;;;;;0.65;0.20;;;18.90;99.90;;;;;;4974162;28;20077;-78
2021/05/10 05:54:07;;;;;;;1.13;0.20;;;18.80;99.90;;;;;;4989574;28;20054;-78
2021/05/10 05:56:32;;;;;;;4.60;0.40;;;18.70;99.90;;;;;;4989905;28;20126;-78
2021/05/10 05:58:58;;;;;;;3.03;0.30;;;18.60;99.90;;;;;;4990163;28;20050;-78
2021/05/10 06:01:25;;;;;;;1.10;0.30;;;18.60;99.90;;;;;;5006376;28;20045;-79
2021/05/10 06:03:51;;;;;;;1.33;0.20;;;18.60;99.90;;;;;;4990391;28;20038;-77
2021/05/10 06:06:17;;;;;;;2.45;0.20;;;18.60;99.90;;;;;;5007452;28;20034;-76
2021/05/10 06:08:43;;;;;;;4.35;0.30;;;18.70;99.90;;;;;;4989489;28;20046;-78
2021/05/10 06:11:09;;;;;;;1.33;0.28;;;18.60;99.90;;;;;;4990050;28;20038;-79
2021/05/10 06:13:36;;;;;;;1.00;0.20;;;18.70;99.90;;;;;;5007877;28;20037;-79
2021/05/10 06:16:02;;;;;;;0.82;0.10;;;18.70;99.90;;;;;;4990035;28;20069;-78
2021/05/10 06:18:27;;;;;;;0.90;0.13;;;18.70;99.90;;;;;;5007723;28;20030;-78
2021/05/10 06:20:53;;;;;;;0.88;0.10;;;18.60;99.90;;;;;;5007562;28;20037;-79
2021/05/10 06:23:19;;;;;;;6.30;0.20;;;18.50;99.90;;;;;;5005866;28;20034;-79
2021/05/10 06:25:45;;;;;;;2.50;0.20;;;18.50;99.90;;;;;;4973526;28;20030;-80
2021/05/10 06:28:10;;;;;;;0.75;0.10;;;18.40;99.90;;;;;;4972920;28;20471;-77
2021/05/10 06:30:36;;;;;;;0.47;0.17;;;18.40;99.90;;;;;;4989374;28;20030;-78
2021/05/10 06:33:01;;;;;;;1.10;0.20;;;18.30;99.90;;;;;;4989815;28;20033;-77
2021/05/10 06:35:27;;;;;;;0.65;0.10;;;18.20;99.90;;;;;;5006989;28;20041;-79
2021/05/10 06:37:56;;;;;;;1.08;0.10;;;18.30;99.90;;;;;;4989428;28;20463;-81
2021/05/10 06:40:21;;;;;;;3.05;0.15;;;18.50;99.90;;;;;;4989634;28;20027;-78
2021/05/10 06:42:47;;;;;;;0.82;0.15;;;18.50;99.90;;;;;;5007296;28;20046;-80
2021/05/10 06:45:12;;;;;;;1.75;0.20;;;18.60;99.90;;;;;;4973202;28;20037;-80
2021/05/10 06:47:41;;;;;;;1.42;0.20;;;18.60;99.90;;;;;;4973510;28;20042;-79
2021/05/10 06:50:08;;;;;;;2.50;0.10;;;18.80;99.90;;;;;;5005776;28;20105;-80
2021/05/10 06:52:34;;;;;;;0.63;0.10;;;19.60;99.90;;;;;;4973168;28;20034;-79
2021/05/10 06:55:00;;;;;;;0.70;0.20;;;19.50;99.90;;;;;;4972867;28;20044;-79
2021/05/10 06:57:26;;;;;;;1.60;0.10;;;19.30;99.90;;;;;;4989581;28;20054;-78
2021/05/10 06:59:52;;;;;;;1.50;0.20;;;19.20;99.90;;;;;;4973313;28;20037;-80
2021/05/10 07:02:20;;;;;;;0.80;0.10;;;19.30;99.90;;;;;;4973301;28;20037;-80
2021/05/10 07:04:46;;;;;;;0.73;0.20;;;18.90;99.90;;;;;;5005521;28;20030;-80
2021/05/10 07:07:12;;;;;;;1.10;0.10;;;19.10;99.90;;;;;;4972603;28;20065;-80
2021/05/10 07:09:38;;;;;;;1.05;0.32;;;18.80;99.90;;;;;;4989112;28;20068;-80
2021/05/10 07:12:05;;;;;;;2.05;0.50;;;18.60;99.90;;;;;;5005209;28;20026;-80
2021/05/10 07:14:31;;;;;;;0.75;0.10;;;18.30;99.90;;;;;;4973004;28;20062;-79
2021/05/10 07:16:56;;;;;;;0.82;0.20;;;18.40;99.90;;;;;;4972906;28;20042;-79
2021/05/10 07:19:22;;;;;;;0.52;0.10;;;18.40;99.90;;;;;;4989635;28;20039;-80
2021/05/10 07:21:48;;;;;;;2.33;0.20;;;18.60;99.90;;;;;;5005199;28;20133;-79
2021/05/10 07:24:14;;;;;;;0.60;0.10;;;18.60;99.90;;;;;;4988875;28;20041;-80
2021/05/10 07:26:39;;;;;;;1.27;0.13;;;18.80;99.90;;;;;;5005133;28;20062;-79
2021/05/10 07:29:05;;;;;;;0.60;0.20;;;19.50;99.90;;;;;;5005058;28;20103;-80
2021/05/10 07:31:31;;;;;;;0.63;0.10;;;19.60;99.90;;;;;;4988719;28;20023;-80
2021/05/10 07:33:57;;;;;;;0.93;0.30;;;19.60;99.90;;;;;;5006182;28;20038;-81
2021/05/10 07:36:23;;;;;;;0.50;0.20;;;19.80;99.90;;;;;;4972392;28;20049;-79
2021/05/10 07:38:49;;;;;;;1.65;0.20;;;19.40;99.90;;;;;;5004743;28;20191;-79
2021/05/10 07:41:14;;;;;;;0.60;0.20;;;19.40;99.90;;;;;;4972303;28;20034;-80
2021/05/10 07:43:40;;;;;;;1.40;0.20;;;19.40;99.90;;;;;;4972436;28;20033;-79
2021/05/10 07:46:06;;;;;;;1.35;0.28;;;19.30;99.90;;;;;;5004515;28;20034;-79
2021/05/10 07:48:32;;;;;;;1.02;0.10;;;19.20;99.90;;;;;;4988041;28;20030;-80
2021/05/10 07:50:58;;;;;;;2.00;0.20;;;19.20;99.90;;;;;;4988580;28;20045;-79
2021/05/10 07:53:23;;;;;;;0.40;0.10;;;19.10;99.90;;;;;;4972317;28;20120;-79
2021/05/10 07:55:49;;;;;;;0.77;0.20;;;18.90;99.90;;;;;;5005645;28;20481;-80
2021/05/10 07:58:24;;;;;;;0.50;0.20;;;19.10;99.90;;;;;;5005844;28;20030;-79
2021/05/10 08:00:55;;;;;;;0.77;0.28;;;19.00;99.90;;;;;;4972184;28;20456;-80
2021/05/10 08:03:22;;;;;;;1.85;0.30;;;18.90;99.90;;;;;;5004488;28;20057;-81
2021/05/10 08:05:48;;;;;;;1.13;0.20;;;18.70;99.90;;;;;;4971832;28;20121;-81
2021/05/10 08:08:16;;;;;;;3.13;0.20;;;18.60;99.90;;;;;;4987981;28;20050;-79
2021/05/10 08:10:45;;;;;;;1.42;0.30;;;18.30;99.90;;;;;;5004206;28;20026;-80
2021/05/10 08:13:10;;;;;;;1.77;0.30;;;18.30;99.90;;;;;;4988099;28;20030;-80
2021/05/10 08:15:37;;;;;;;0.75;0.30;;;18.20;99.90;;;;;;4971660;28;20144;-79
2021/05/10 08:18:03;;;;;;;1.63;0.22;;;18.20;99.90;;;;;;4971834;28;20062;-78
2021/05/10 08:20:29;;;;;;;0.73;0.30;;;18.30;99.90;;;;;;5004959;28;20049;-80
2021/05/10 08:22:54;;;;;;;1.33;0.30;;;18.50;99.90;;;;;;4988522;28;20022;-80
2021/05/10 08:25:20;;;;;;;0.73;0.20;;;18.50;99.90;;;;;;4972492;28;20455;-81
2021/05/10 08:27:46;;;;;;;1.42;0.28;;;18.60;99.90;;;;;;5004186;28;20030;-80
2021/05/10 08:30:12;;;;;;;0.93;0.20;;;18.70;99.90;;;;;;4988059;28;20064;-79
2021/05/10 08:32:39;;;;;;;1.60;0.30;;;19.00;99.90;;;;;;5003846;28;20038;-79
2021/05/10 08:35:06;;;;;;;1.67;0.25;;;19.00;99.90;;;;;;5005355;28;20038;-80
2021/05/10 08:37:32;;;;;;;2.78;0.30;;;18.90;99.90;;;;;;4987338;28;20050;-80
2021/05/10 08:39:59;;;;;;;1.73;0.30;;;18.70;99.90;;;;;;4971713;28;20031;-80
2021/05/10 08:42:26;;;;;;;1.88;0.30;;;19.00;99.90;;;;;;4987956;28;20056;-79
2021/05/10 08:44:52;;;;;;;5.90;0.50;;;19.10;99.90;;;;;;5005340;28;20022;-81
2021/05/10 08:47:31;;;;;;;1.60;0.30;;;19.00;99.90;;;;;;4987803;28;20054;-83
2021/05/10 08:49:58;;;;;;;0.65;0.10;;;18.80;99.90;;;;;;4972010;28;20115;-81
2021/05/10 08:52:24;;;;;;;1.10;0.28;;;18.90;99.90;;;;;;4973068;28;20104;-81
2021/05/10 08:54:49;;;;;;;0.80;0.30;;;18.70;99.90;;;;;;5007885;28;20509;-80
2021/05/10 08:57:15;;;;;;;1.60;0.20;;;18.50;99.90;;;;;;4991689;28;20069;-81
2021/05/10 08:59:42;;;;;;;1.85;0.10;;;18.50;99.90;;;;;;4992413;28;20069;-81
2021/05/10 09:02:09;;;;;;;0.50;0.10;;;18.00;99.90;;;;;;4975518;28;20026;-83
2021/05/10 09:04:36;;;;;;;0.43;0.20;;;18.20;99.90;;;;;;4991470;28;20104;-80
2021/05/10 09:07:20;;;;;;;5.32;0.35;;;18.50;99.90;;;;;;4999088;23;20446;-80
2021/05/10 09:09:54;;;;;;;0.60;0.30;;;18.30;99.90;;;;;;4975756;28;20037;-79
2021/05/10 09:12:22;;;;;;;0.95;0.20;;;18.10;99.90;;;;;;4975662;28;20041;-80
2021/05/10 09:14:48;;;;;;;0.30;0.10;;;18.00;99.90;;;;;;4975613;28;20421;-80
2021/05/10 09:17:15;;;;;;;0.30;0.10;;;17.70;99.90;;;;;;4975745;28;20117;-84
2021/05/10 09:19:43;;;;;;;0.65;0.20;;;17.20;99.90;;;;;;4975446;28;20140;-80
2021/05/10 09:22:10;;;;;;;0.77;0.10;;;17.00;99.90;;;;;;4975289;28;20042;-80
2021/05/10 09:24:48;;;;;;;0.45;0.20;;;16.90;99.90;;;;;;4976925;28;20037;-80
2021/05/10 09:27:23;;;;;;;0.82;0.20;;;16.50;99.90;;;;;;4989439;28;20478;-79
2021/05/10 09:29:51;;;;;;;1.00;0.20;;;16.30;99.90;;;;;;4978031;28;20110;-80
2021/05/10 09:32:30;;;;;;;1.95;0.20;;;16.10;99.90;;;;;;4991081;28;20050;-81
2021/05/10 09:35:14;;;;;;;1.17;0.45;;;16.10;99.90;;;;;;4974725;28;20038;-81
2021/05/10 09:37:39;;;;;;;1.33;0.30;;;15.90;99.90;;;;;;4990763;28;20046;-81
2021/05/10 09:40:07;;;;;;;1.42;0.22;;;15.90;99.90;;;;;;4975012;28;20031;-80
2021/05/10 09:43:05;;;;;;;0.90;0.20;;;16.00;99.90;;;;;;4974642;28;20030;-81
2021/05/10 09:45:59;;;;;;;0.85;0.20;;;15.90;99.90;;;;;;4969168;28;20045;-81
2021/05/10 09:48:31;;;;;;;1.10;0.20;;;16.00;99.90;;;;;;5004788;28;20043;-80
2021/05/10 09:51:00;;;;;;;1.48;0.30;;;15.90;99.90;;;;;;4974523;28;20042;-80
2021/05/10 09:53:36;;;;;;;0.98;0.30;;;15.60;99.90;;;;;;4990701;28;20027;-80
2021/05/10 09:56:04;;;;;;;1.35;0.30;;;15.90;99.90;;;;;;4990438;28;20056;-81
2021/05/10 09:58:41;;;;;;;2.03;0.32;;;15.90;99.90;;;;;;5006733;28;20129;-82
2021/05/10 10:01:08;;;;;;;0.77;0.38;;;16.00;99.90;;;;;;4974314;28;20038;-82
2021/05/10 10:03:42;;;;;;;1.10;0.30;;;16.00;99.90;;;;;;4974045;28;20202;-80
2021/05/10 10:06:13;;;;;;;2.38;0.45;;;16.10;99.90;;;;;;4990263;28;20069;-80
2021/05/10 10:08:42;;;;;;;0.68;0.20;;;16.10;99.90;;;;;;5006401;28;20073;-80
2021/05/10 10:11:10;;;;;;;1.33;0.30;;;16.10;99.90;;;;;;4974514;28;20041;-80
2021/05/10 10:13:36;;;;;;;1.20;0.30;;;16.20;99.90;;;;;;4973746;28;20034;-79
2021/05/10 10:16:03;;;;;;;3.00;0.45;;;16.20;99.90;;;;;;4990106;28;20309;-80
2021/05/10 10:18:29;;;;;;;1.20;0.40;;;16.10;99.90;;;;;;4990003;28;20038;-81
2021/05/10 10:20:58;;;;;;;0.82;0.40;;;16.20;99.90;;;;;;4990001;28;20031;-80
2021/05/10 10:23:27;;;;;;;1.15;0.30;;;16.30;99.90;;;;;;4990059;28;20026;-79
2021/05/10 10:25:55;;;;;;;0.70;0.30;;;16.30;99.90;;;;;;4989757;28;20030;-80
2021/05/10 10:28:23;;;;;;;0.88;0.30;;;16.00;99.90;;;;;;4989949;28;20078;-81
2021/05/10 10:30:56;;;;;;;0.85;0.30;;;15.90;99.90;;;;;;4989991;28;20031;-80
2021/05/10 10:34:00;;;;;;;1.52;0.30;;;15.90;99.90;;;;;;4990350;28;20034;-80
2021/05/10 10:36:42;;;;;;;3.53;0.40;;;16.20;99.90;;;;;;4990128;28;20045;-80
2021/05/10 10:39:19;;;;;;;1.67;0.30;;;16.20;99.90;;;;;;4989882;28;20080;-80
2021/05/10 10:41:54;;;;;;;2.55;0.32;;;16.50;99.90;;;;;;5007390;28;20058;-80
2021/05/10 10:44:33;;;;;;;0.90;0.20;;;16.40;99.90;;;;;;5005574;28;20042;-80
2021/05/10 10:46:59;;;;;;;0.60;0.30;;;16.50;99.90;;;;;;4989566;28;20064;-80
2021/05/10 10:49:38;;;;;;;0.88;0.30;;;16.40;99.90;;;;;;4989504;28;20058;-80
2021/05/10 10:52:15;;;;;;;1.52;0.30;;;16.50;99.90;;;;;;4989490;28;20483;-79
2021/05/10 10:54:41;;;;;;;0.88;0.28;;;16.70;99.90;;;;;;4989017;28;20046;-79
2021/05/10 10:57:06;;;;;;;1.60;0.30;;;17.10;99.90;;;;;;4989234;28;20031;-79
2021/05/10 10:59:42;;;;;;;2.47;0.50;;;17.00;99.90;;;;;;4989106;28;20037;-79
2021/05/10 11:02:23;;;;;;;1.90;0.30;;;17.20;99.90;;;;;;4989250;28;20034;-79
2021/05/10 11:05:09;;;;;;;1.75;0.32;;;17.20;99.90;;;;;;5003636;28;20044;-79
2021/05/10 11:07:58;;;;;;;1.88;0.43;;;16.60;99.90;;;;;;4988754;28;20047;-80
2021/05/10 11:10:43;;;;;;;2.22;0.35;;;16.60;99.90;;;;;;4988993;28;20030;-79
2021/05/10 11:13:10;;;;;;;2.40;0.40;;;16.70;99.90;;;;;;4972724;28;20096;-78
2021/05/10 11:15:35;;;;;;;1.10;0.60;;;16.70;99.90;;;;;;4988115;28;20049;-79
2021/05/10 11:18:02;;;;;;;3.75;0.30;;;16.90;99.90;;;;;;5004716;28;20034;-79
2021/05/10 11:20:41;;;;;;;1.17;0.40;;;17.10;99.90;;;;;;5006166;28;20077;-78
2021/05/10 11:23:25;;;;;;;1.48;0.30;;;17.30;99.90;;;;;;4988654;28;20026;-78
2021/05/10 11:25:52;;;;;;;4.93;0.40;;;17.50;99.90;;;;;;4972297;28;20490;-78
2021/05/10 11:28:30;;;;;;;1.75;0.35;;;17.40;99.90;;;;;;4972641;28;20034;-78
2021/05/10 11:31:04;;;;;;;1.30;0.40;;;17.20;99.90;;;;;;4988518;28;20439;-79
2021/05/10 11:33:52;;;;;;;2.38;0.40;;;17.20;99.90;;;;;;4988099;28;20040;-79
2021/05/10 11:36:22;;;;;;;1.17;0.40;;;17.00;99.90;;;;;;4988247;28;20044;-79
2021/05/10 11:38:59;;;;;;;1.95;0.28;;;16.90;99.90;;;;;;4972405;28;20285;-79
2021/05/10 11:41:42;;;;;;;1.00;0.40;;;16.90;99.90;;;;;;4988502;28;20041;-78
2021/05/10 11:44:34;;;;;;;1.88;0.40;;;16.80;99.90;;;;;;4988284;28;20034;-78
2021/05/10 11:47:10;;;;;;;1.83;0.32;;;17.00;99.90;;;;;;5004444;28;20038;-79
2021/05/10 11:49:41;;;;;;;4.50;0.50;;;17.10;99.90;;;;;;4955524;28;20042;-79
2021/05/10 11:52:54;;;;;;;7.38;0.60;;;17.10;99.90;;;;;;4986225;28;20165;-78
2021/05/10 11:55:22;;;;;;;2.30;0.50;;;17.00;99.90;;;;;;4967242;28;20038;-79
2021/05/10 11:57:55;;;;;;;1.05;0.30;;;17.40;99.90;;;;;;4967959;28;20122;-79
2021/05/10 12:00:21;;;;;;;2.97;0.57;;;17.30;99.90;;;;;;4968817;28;20034;-79
2021/05/10 12:02:48;;;;;;;2.30;0.40;;;17.20;99.90;;;;;;4968310;28;20046;-79
2021/05/10 12:05:14;;;;;;;4.38;0.52;;;17.00;99.90;;;;;;4968646;28;20039;-78
2021/05/10 12:07:40;;;;;;;1.88;0.40;;;17.30;99.90;;;;;;5021054;23;20060;-79
2021/05/10 12:10:11;;;;;;;1.38;0.50;;;17.40;99.90;;;;;;5027653;28;20084;-78
2021/05/10 12:12:42;;;;;;;0.90;0.30;;;17.10;99.90;;;;;;5011283;28;20041;-79
2021/05/10 12:15:09;;;;;;;0.90;0.40;;;17.20;99.90;;;;;;5027225;28;20109;-79
2021/05/10 12:17:36;;;;;;;1.50;0.40;;;17.40;99.90;;;;;;5027189;28;20021;-79
2021/05/10 12:20:09;;;;;;;1.30;0.40;;;17.20;99.90;;;;;;5027465;28;20033;-79
2021/05/10 12:22:40;;;;;;;3.42;0.40;;;17.60;99.90;;;;;;5027253;28;20034;-78
2021/05/10 12:25:07;;;;;;;1.10;0.30;;;17.60;99.90;;;;;;5027244;28;20041;-80
2021/05/10 12:27:42;;;;;;;1.33;0.40;;;17.50;99.90;;;;;;5026497;28;20389;-80
2021/05/10 12:30:14;;;;;;;2.25;0.22;;;18.00;99.90;;;;;;5027276;28;20041;-79
2021/05/10 12:32:43;;;;;;;3.00;0.30;;;18.10;99.90;;;;;;5027017;28;20033;-79
2021/05/10 12:35:10;;;;;;;1.77;0.60;;;18.20;99.90;;;;;;5044887;28;20386;-78
2021/05/10 12:37:40;;;;;;;2.00;0.30;;;18.20;99.90;;;;;;5026752;28;20041;-79
2021/05/10 12:40:08;;;;;;;2.20;0.30;;;18.60;99.90;;;;;;5027334;28;20539;-79
2021/05/10 12:42:37;;;;;;;1.83;0.30;;;19.00;99.90;;;;;;5044914;28;20444;-79
2021/05/10 12:45:09;;;;;;;3.22;0.35;;;19.30;99.90;;;;;;5027056;28;20030;-80
2021/05/10 12:47:38;;;;;;;5.90;0.50;;;19.50;99.90;;;;;;5044745;28;20038;-80
2021/05/10 12:50:04;;;;;;;1.48;0.30;;;19.20;99.90;;;;;;5044949;28;20082;-80
2021/05/10 12:52:48;;;;;;;1.27;0.30;;;19.80;99.90;;;;;;5026951;28;20056;-79
2021/05/10 12:55:22;;;;;;;1.98;0.20;;;19.70;99.90;;;;;;5026632;28;20544;-79
2021/05/10 12:57:51;;;;;;;1.83;0.20;;;19.80;99.90;;;;;;5044832;28;20279;-81
2021/05/10 13:00:37;;;;;;;2.10;0.20;;;19.80;99.90;;;;;;5026974;28;20038;-79